sensor_id;sensor_type;location;lat;lon;timestamp;P1;durP1;ratioP1;P2;durP2;ratioP2
71771;SDS011;59606;52.138;5.424;2022-10-22T00:01:36;11.38;;;4.38;;
71771;SDS011;59606;52.138;5.424;2022-10-22T00:04:04;10.70;;;4.33;;
71771;SDS011;59606;52.138;5.424;2022-10-22T00:06:31;9.65;;;4.38;;
71771;SDS011;59606;52.138;5.424;2022-10-22T00:08:58;10.98;;;4.45;;
71771;SDS011;59606;52.138;5.424;2022-10-22T00:11:24;14.57;;;5.10;;
71771;SDS011;59606;52.138;5.424;2022-10-22T00:13:51;11.23;;;4.38;;
71771;SDS011;59606;52.138;5.424;2022-10-22T00:16:17;10.33;;;4.60;;
71771;SDS011;59606;52.138;5.424;2022-10-22T00:18:44;10.00;;;4.22;;
71771;SDS011;59606;52.138;5.424;2022-10-22T00:21:10;8.57;;;4.07;;
71771;SDS011;59606;52.138;5.424;2022-10-22T00:23:40;10.25;;;4.45;;
71771;SDS011;59606;52.138;5.424;2022-10-22T00:26:07;12.32;;;4.68;;
71771;SDS011;59606;52.138;5.424;2022-10-22T00:28:35;7.17;;;3.87;;
71771;SDS011;59606;52.138;5.424;2022-10-22T00:31:01;11.65;;;4.72;;
71771;SDS011;59606;52.138;5.424;2022-10-22T00:33:28;8.15;;;4.00;;
71771;SDS011;59606;52.138;5.424;2022-10-22T00:35:55;12.07;;;4.38;;
71771;SDS011;59606;52.138;5.424;2022-10-22T00:38:22;7.93;;;3.90;;
71771;SDS011;59606;52.138;5.424;2022-10-22T00:40:48;8.97;;;4.40;;
71771;SDS011;59606;52.138;5.424;2022-10-22T00:43:16;11.30;;;5.07;;
71771;SDS011;59606;52.138;5.424;2022-10-22T00:45:44;7.32;;;3.88;;
71771;SDS011;59606;52.138;5.424;2022-10-22T00:48:18;7.55;;;3.85;;
71771;SDS011;59606;52.138;5.424;2022-10-22T00:53:30;6.53;;;3.40;;
71771;SDS011;59606;52.138;5.424;2022-10-22T00:56:00;7.63;;;3.97;;
71771;SDS011;59606;52.138;5.424;2022-10-22T00:58:27;11.57;;;4.55;;
71771;SDS011;59606;52.138;5.424;2022-10-22T01:00:57;9.25;;;4.20;;
71771;SDS011;59606;52.138;5.424;2022-10-22T01:03:24;9.15;;;4.00;;
71771;SDS011;59606;52.138;5.424;2022-10-22T01:05:55;9.10;;;3.63;;
71771;SDS011;59606;52.138;5.424;2022-10-22T01:11:18;7.30;;;3.97;;
71771;SDS011;59606;52.138;5.424;2022-10-22T01:13:57;9.90;;;4.35;;
71771;SDS011;59606;52.138;5.424;2022-10-22T01:16:30;23.25;;;5.35;;
71771;SDS011;59606;52.138;5.424;2022-10-22T01:19:11;8.70;;;4.17;;
71771;SDS011;59606;52.138;5.424;2022-10-22T01:21:52;10.32;;;4.25;;
71771;SDS011;59606;52.138;5.424;2022-10-22T01:24:26;14.02;;;4.10;;
71771;SDS011;59606;52.138;5.424;2022-10-22T01:32:24;10.00;;;4.17;;
71771;SDS011;59606;52.138;5.424;2022-10-22T01:34:56;8.10;;;3.75;;
71771;SDS011;59606;52.138;5.424;2022-10-22T01:37:30;7.07;;;3.42;;
71771;SDS011;59606;52.138;5.424;2022-10-22T01:40:00;12.77;;;3.80;;
71771;SDS011;59606;52.138;5.424;2022-10-22T01:42:28;10.93;;;3.78;;
71771;SDS011;59606;52.138;5.424;2022-10-22T01:44:54;6.80;;;3.13;;
71771;SDS011;59606;52.138;5.424;2022-10-22T01:56:02;11.55;;;4.03;;
71771;SDS011;59606;52.138;5.424;2022-10-22T02:04:04;10.20;;;4.18;;
71771;SDS011;59606;52.138;5.424;2022-10-22T02:06:43;9.98;;;3.90;;
71771;SDS011;59606;52.138;5.424;2022-10-22T02:09:13;13.60;;;4.53;;
71771;SDS011;59606;52.138;5.424;2022-10-22T02:11:42;9.03;;;3.70;;
71771;SDS011;59606;52.138;5.424;2022-10-22T02:14:10;15.10;;;4.15;;
71771;SDS011;59606;52.138;5.424;2022-10-22T02:16:42;10.25;;;3.53;;
71771;SDS011;59606;52.138;5.424;2022-10-22T02:21:49;6.50;;;3.22;;
71771;SDS011;59606;52.138;5.424;2022-10-22T02:24:16;9.13;;;3.77;;
71771;SDS011;59606;52.138;5.424;2022-10-22T02:29:49;8.98;;;3.45;;
71771;SDS011;59606;52.138;5.424;2022-10-22T02:32:22;6.68;;;3.42;;
71771;SDS011;59606;52.138;5.424;2022-10-22T02:34:54;8.93;;;3.60;;
71771;SDS011;59606;52.138;5.424;2022-10-22T02:37:22;12.37;;;4.80;;
71771;SDS011;59606;52.138;5.424;2022-10-22T02:39:51;10.77;;;4.15;;
71771;SDS011;59606;52.138;5.424;2022-10-22T02:42:18;10.48;;;3.97;;
71771;SDS011;59606;52.138;5.424;2022-10-22T02:44:44;9.52;;;4.10;;
71771;SDS011;59606;52.138;5.424;2022-10-22T02:47:11;9.93;;;4.05;;
71771;SDS011;59606;52.138;5.424;2022-10-22T02:49:38;11.80;;;3.63;;
71771;SDS011;59606;52.138;5.424;2022-10-22T02:52:04;14.60;;;4.30;;
71771;SDS011;59606;52.138;5.424;2022-10-22T02:54:30;6.78;;;3.70;;
71771;SDS011;59606;52.138;5.424;2022-10-22T02:56:57;10.10;;;3.90;;
71771;SDS011;59606;52.138;5.424;2022-10-22T02:59:23;9.27;;;3.45;;
71771;SDS011;59606;52.138;5.424;2022-10-22T03:01:50;9.57;;;3.40;;
71771;SDS011;59606;52.138;5.424;2022-10-22T03:04:16;12.30;;;3.45;;
71771;SDS011;59606;52.138;5.424;2022-10-22T03:06:43;18.80;;;3.92;;
71771;SDS011;59606;52.138;5.424;2022-10-22T03:09:10;11.63;;;3.38;;
71771;SDS011;59606;52.138;5.424;2022-10-22T03:11:36;8.38;;;3.42;;
71771;SDS011;59606;52.138;5.424;2022-10-22T03:14:03;13.40;;;4.17;;
71771;SDS011;59606;52.138;5.424;2022-10-22T03:16:29;9.65;;;3.95;;
71771;SDS011;59606;52.138;5.424;2022-10-22T03:18:56;8.23;;;3.40;;
71771;SDS011;59606;52.138;5.424;2022-10-22T03:24:12;8.68;;;3.42;;
71771;SDS011;59606;52.138;5.424;2022-10-22T03:26:41;10.47;;;3.60;;
71771;SDS011;59606;52.138;5.424;2022-10-22T03:29:11;11.68;;;3.22;;
71771;SDS011;59606;52.138;5.424;2022-10-22T03:31:39;12.07;;;3.70;;
71771;SDS011;59606;52.138;5.424;2022-10-22T03:34:05;17.65;;;3.47;;
71771;SDS011;59606;52.138;5.424;2022-10-22T03:36:32;12.02;;;3.65;;
71771;SDS011;59606;52.138;5.424;2022-10-22T03:38:59;20.27;;;4.13;;
71771;SDS011;59606;52.138;5.424;2022-10-22T03:41:27;8.27;;;3.30;;
71771;SDS011;59606;52.138;5.424;2022-10-22T03:43:54;12.93;;;4.03;;
71771;SDS011;59606;52.138;5.424;2022-10-22T03:46:21;10.63;;;3.50;;
71771;SDS011;59606;52.138;5.424;2022-10-22T03:48:47;14.38;;;3.55;;
71771;SDS011;59606;52.138;5.424;2022-10-22T03:51:14;11.50;;;3.37;;
71771;SDS011;59606;52.138;5.424;2022-10-22T03:53:40;12.07;;;3.65;;
71771;SDS011;59606;52.138;5.424;2022-10-22T03:56:07;12.23;;;3.67;;
71771;SDS011;59606;52.138;5.424;2022-10-22T03:58:36;10.80;;;4.00;;
71771;SDS011;59606;52.138;5.424;2022-10-22T04:01:04;9.45;;;4.00;;
71771;SDS011;59606;52.138;5.424;2022-10-22T04:03:31;13.70;;;3.60;;
71771;SDS011;59606;52.138;5.424;2022-10-22T04:06:02;11.57;;;4.00;;
71771;SDS011;59606;52.138;5.424;2022-10-22T04:08:30;7.00;;;3.53;;
71771;SDS011;59606;52.138;5.424;2022-10-22T04:10:56;10.00;;;3.88;;
71771;SDS011;59606;52.138;5.424;2022-10-22T04:13:23;13.57;;;4.65;;
71771;SDS011;59606;52.138;5.424;2022-10-22T04:15:50;13.73;;;3.70;;
71771;SDS011;59606;52.138;5.424;2022-10-22T04:18:17;8.95;;;3.42;;
71771;SDS011;59606;52.138;5.424;2022-10-22T04:20:44;17.17;;;4.22;;
71771;SDS011;59606;52.138;5.424;2022-10-22T04:23:11;9.82;;;3.63;;
71771;SDS011;59606;52.138;5.424;2022-10-22T04:25:38;16.08;;;4.63;;
71771;SDS011;59606;52.138;5.424;2022-10-22T04:28:06;8.53;;;3.60;;
71771;SDS011;59606;52.138;5.424;2022-10-22T04:30:34;15.85;;;4.25;;
71771;SDS011;59606;52.138;5.424;2022-10-22T04:33:01;12.00;;;3.83;;
71771;SDS011;59606;52.138;5.424;2022-10-22T04:35:28;9.05;;;4.10;;
71771;SDS011;59606;52.138;5.424;2022-10-22T04:37:55;11.27;;;4.20;;
71771;SDS011;59606;52.138;5.424;2022-10-22T04:40:21;16.33;;;4.53;;
71771;SDS011;59606;52.138;5.424;2022-10-22T04:42:48;10.48;;;3.70;;
71771;SDS011;59606;52.138;5.424;2022-10-22T04:45:14;12.10;;;4.18;;
71771;SDS011;59606;52.138;5.424;2022-10-22T04:47:41;12.65;;;4.40;;
71771;SDS011;59606;52.138;5.424;2022-10-22T04:50:08;12.43;;;4.18;;
71771;SDS011;59606;52.138;5.424;2022-10-22T04:52:34;11.10;;;4.47;;
71771;SDS011;59606;52.138;5.424;2022-10-22T04:55:01;14.32;;;4.07;;
71771;SDS011;59606;52.138;5.424;2022-10-22T04:57:30;11.93;;;3.88;;
71771;SDS011;59606;52.138;5.424;2022-10-22T04:59:57;10.98;;;4.05;;
71771;SDS011;59606;52.138;5.424;2022-10-22T05:02:23;7.70;;;3.60;;
71771;SDS011;59606;52.138;5.424;2022-10-22T05:04:50;11.17;;;3.37;;
71771;SDS011;59606;52.138;5.424;2022-10-22T05:07:16;10.82;;;3.95;;
71771;SDS011;59606;52.138;5.424;2022-10-22T05:09:43;11.05;;;3.90;;
71771;SDS011;59606;52.138;5.424;2022-10-22T05:12:09;8.65;;;3.88;;
71771;SDS011;59606;52.138;5.424;2022-10-22T05:14:36;10.95;;;4.05;;
71771;SDS011;59606;52.138;5.424;2022-10-22T05:17:07;10.97;;;3.60;;
71771;SDS011;59606;52.138;5.424;2022-10-22T05:19:34;9.57;;;3.83;;
71771;SDS011;59606;52.138;5.424;2022-10-22T05:22:01;13.90;;;4.20;;
71771;SDS011;59606;52.138;5.424;2022-10-22T05:24:29;12.63;;;4.20;;
71771;SDS011;59606;52.138;5.424;2022-10-22T05:26:58;16.70;;;4.63;;
71771;SDS011;59606;52.138;5.424;2022-10-22T05:29:25;9.80;;;3.53;;
71771;SDS011;59606;52.138;5.424;2022-10-22T05:31:52;10.50;;;4.10;;
71771;SDS011;59606;52.138;5.424;2022-10-22T05:34:19;10.32;;;3.78;;
71771;SDS011;59606;52.138;5.424;2022-10-22T05:36:45;12.65;;;3.95;;
71771;SDS011;59606;52.138;5.424;2022-10-22T05:39:12;12.13;;;3.42;;
71771;SDS011;59606;52.138;5.424;2022-10-22T05:41:38;11.97;;;3.63;;
71771;SDS011;59606;52.138;5.424;2022-10-22T05:44:05;13.27;;;3.97;;
71771;SDS011;59606;52.138;5.424;2022-10-22T05:46:34;11.45;;;3.88;;
71771;SDS011;59606;52.138;5.424;2022-10-22T05:49:02;11.82;;;3.35;;
71771;SDS011;59606;52.138;5.424;2022-10-22T05:51:31;11.45;;;3.67;;
71771;SDS011;59606;52.138;5.424;2022-10-22T05:54:00;13.93;;;3.53;;
71771;SDS011;59606;52.138;5.424;2022-10-22T05:56:29;11.00;;;3.53;;
71771;SDS011;59606;52.138;5.424;2022-10-22T05:58:57;10.93;;;3.75;;
71771;SDS011;59606;52.138;5.424;2022-10-22T06:01:28;8.35;;;3.90;;
71771;SDS011;59606;52.138;5.424;2022-10-22T06:03:57;10.15;;;3.80;;
71771;SDS011;59606;52.138;5.424;2022-10-22T06:11:44;10.65;;;4.43;;
71771;SDS011;59606;52.138;5.424;2022-10-22T06:14:11;12.13;;;3.92;;
71771;SDS011;59606;52.138;5.424;2022-10-22T06:16:37;15.13;;;3.90;;
71771;SDS011;59606;52.138;5.424;2022-10-22T06:19:04;14.43;;;3.33;;
71771;SDS011;59606;52.138;5.424;2022-10-22T06:21:31;9.43;;;3.90;;
71771;SDS011;59606;52.138;5.424;2022-10-22T06:23:58;12.88;;;4.00;;
71771;SDS011;59606;52.138;5.424;2022-10-22T06:26:26;13.43;;;4.20;;
71771;SDS011;59606;52.138;5.424;2022-10-22T06:28:53;12.35;;;3.47;;
71771;SDS011;59606;52.138;5.424;2022-10-22T06:31:21;9.83;;;3.70;;
71771;SDS011;59606;52.138;5.424;2022-10-22T06:33:48;10.73;;;3.47;;
71771;SDS011;59606;52.138;5.424;2022-10-22T06:36:16;9.73;;;3.50;;
71771;SDS011;59606;52.138;5.424;2022-10-22T06:38:53;13.30;;;3.60;;
71771;SDS011;59606;52.138;5.424;2022-10-22T06:41:20;13.90;;;3.83;;
71771;SDS011;59606;52.138;5.424;2022-10-22T06:43:52;11.20;;;4.20;;
71771;SDS011;59606;52.138;5.424;2022-10-22T06:46:19;12.80;;;3.40;;
71771;SDS011;59606;52.138;5.424;2022-10-22T06:48:47;10.90;;;3.58;;
71771;SDS011;59606;52.138;5.424;2022-10-22T06:51:15;15.13;;;3.50;;
71771;SDS011;59606;52.138;5.424;2022-10-22T06:53:43;11.07;;;3.42;;
71771;SDS011;59606;52.138;5.424;2022-10-22T06:56:10;12.20;;;3.53;;
71771;SDS011;59606;52.138;5.424;2022-10-22T06:58:39;12.18;;;3.28;;
71771;SDS011;59606;52.138;5.424;2022-10-22T07:01:07;10.93;;;3.83;;
71771;SDS011;59606;52.138;5.424;2022-10-22T07:03:36;13.10;;;3.58;;
71771;SDS011;59606;52.138;5.424;2022-10-22T07:06:04;14.88;;;4.00;;
71771;SDS011;59606;52.138;5.424;2022-10-22T07:08:32;10.83;;;3.80;;
71771;SDS011;59606;52.138;5.424;2022-10-22T07:13:33;9.98;;;3.20;;
71771;SDS011;59606;52.138;5.424;2022-10-22T07:16:01;8.85;;;2.97;;
71771;SDS011;59606;52.138;5.424;2022-10-22T07:18:28;16.40;;;3.72;;
71771;SDS011;59606;52.138;5.424;2022-10-22T07:20:54;8.20;;;3.57;;
71771;SDS011;59606;52.138;5.424;2022-10-22T07:23:21;9.15;;;2.92;;
71771;SDS011;59606;52.138;5.424;2022-10-22T07:25:47;15.80;;;3.38;;
71771;SDS011;59606;52.138;5.424;2022-10-22T07:28:14;10.57;;;3.05;;
71771;SDS011;59606;52.138;5.424;2022-10-22T07:30:40;12.23;;;3.15;;
71771;SDS011;59606;52.138;5.424;2022-10-22T07:33:07;10.73;;;2.50;;
71771;SDS011;59606;52.138;5.424;2022-10-22T07:35:35;10.98;;;2.85;;
71771;SDS011;59606;52.138;5.424;2022-10-22T07:38:03;15.88;;;3.13;;
71771;SDS011;59606;52.138;5.424;2022-10-22T07:40:30;10.52;;;2.70;;
71771;SDS011;59606;52.138;5.424;2022-10-22T07:42:56;13.63;;;3.00;;
71771;SDS011;59606;52.138;5.424;2022-10-22T07:45:23;14.87;;;2.73;;
71771;SDS011;59606;52.138;5.424;2022-10-22T07:47:49;9.25;;;2.50;;
71771;SDS011;59606;52.138;5.424;2022-10-22T07:50:16;16.23;;;3.17;;
71771;SDS011;59606;52.138;5.424;2022-10-22T07:52:43;5.57;;;2.88;;
71771;SDS011;59606;52.138;5.424;2022-10-22T07:55:10;10.70;;;3.00;;
71771;SDS011;59606;52.138;5.424;2022-10-22T07:57:36;13.13;;;2.20;;
71771;SDS011;59606;52.138;5.424;2022-10-22T08:00:03;7.45;;;2.00;;
71771;SDS011;59606;52.138;5.424;2022-10-22T08:02:32;11.07;;;2.47;;
71771;SDS011;59606;52.138;5.424;2022-10-22T08:04:58;14.05;;;2.85;;
71771;SDS011;59606;52.138;5.424;2022-10-22T08:07:25;6.95;;;2.22;;
71771;SDS011;59606;52.138;5.424;2022-10-22T08:09:57;15.90;;;3.57;;
71771;SDS011;59606;52.138;5.424;2022-10-22T08:12:23;9.73;;;2.30;;
71771;SDS011;59606;52.138;5.424;2022-10-22T08:14:49;13.07;;;3.35;;
71771;SDS011;59606;52.138;5.424;2022-10-22T08:17:16;8.27;;;3.05;;
71771;SDS011;59606;52.138;5.424;2022-10-22T08:19:42;8.68;;;2.25;;
71771;SDS011;59606;52.138;5.424;2022-10-22T08:22:09;8.43;;;2.17;;
71771;SDS011;59606;52.138;5.424;2022-10-22T08:24:35;10.32;;;2.03;;
71771;SDS011;59606;52.138;5.424;2022-10-22T08:27:02;9.15;;;2.17;;
71771;SDS011;59606;52.138;5.424;2022-10-22T08:29:28;6.57;;;1.70;;
71771;SDS011;59606;52.138;5.424;2022-10-22T08:31:55;7.55;;;1.80;;
71771;SDS011;59606;52.138;5.424;2022-10-22T08:34:21;8.60;;;1.83;;
71771;SDS011;59606;52.138;5.424;2022-10-22T08:36:48;8.98;;;1.92;;
71771;SDS011;59606;52.138;5.424;2022-10-22T08:39:14;8.82;;;1.92;;
71771;SDS011;59606;52.138;5.424;2022-10-22T08:41:46;7.43;;;2.20;;
71771;SDS011;59606;52.138;5.424;2022-10-22T08:47:31;10.77;;;2.40;;
71771;SDS011;59606;52.138;5.424;2022-10-22T08:50:02;13.00;;;2.30;;
71771;SDS011;59606;52.138;5.424;2022-10-22T08:52:29;7.32;;;1.65;;
71771;SDS011;59606;52.138;5.424;2022-10-22T08:54:59;8.70;;;1.65;;
71771;SDS011;59606;52.138;5.424;2022-10-22T09:00:08;7.67;;;1.90;;
71771;SDS011;59606;52.138;5.424;2022-10-22T09:08:12;9.02;;;2.05;;
71771;SDS011;59606;52.138;5.424;2022-10-22T09:10:45;9.23;;;1.90;;
71771;SDS011;59606;52.138;5.424;2022-10-22T09:13:15;10.03;;;1.80;;
71771;SDS011;59606;52.138;5.424;2022-10-22T09:15:46;8.73;;;1.77;;
71771;SDS011;59606;52.138;5.424;2022-10-22T09:21:25;7.82;;;2.08;;
71771;SDS011;59606;52.138;5.424;2022-10-22T09:26:32;13.80;;;2.10;;
71771;SDS011;59606;52.138;5.424;2022-10-22T09:29:03;9.55;;;2.17;;
71771;SDS011;59606;52.138;5.424;2022-10-22T09:31:31;8.93;;;1.50;;
71771;SDS011;59606;52.138;5.424;2022-10-22T09:33:58;6.55;;;1.30;;
71771;SDS011;59606;52.138;5.424;2022-10-22T09:36:31;4.38;;;1.48;;
71771;SDS011;59606;52.138;5.424;2022-10-22T09:38:57;10.37;;;2.80;;
71771;SDS011;59606;52.138;5.424;2022-10-22T09:41:25;8.30;;;1.80;;
71771;SDS011;59606;52.138;5.424;2022-10-22T09:43:57;7.35;;;1.45;;
71771;SDS011;59606;52.138;5.424;2022-10-22T09:46:28;5.85;;;1.55;;
71771;SDS011;59606;52.138;5.424;2022-10-22T09:49:12;15.70;;;1.80;;
71771;SDS011;59606;52.138;5.424;2022-10-22T09:57:24;10.65;;;1.92;;
71771;SDS011;59606;52.138;5.424;2022-10-22T09:59:48;7.63;;;1.38;;
71771;SDS011;59606;52.138;5.424;2022-10-22T10:02:20;11.00;;;1.60;;
71771;SDS011;59606;52.138;5.424;2022-10-22T10:05:04;8.80;;;1.47;;
71771;SDS011;59606;52.138;5.424;2022-10-22T10:07:32;8.38;;;1.27;;
71771;SDS011;59606;52.138;5.424;2022-10-22T10:10:00;14.10;;;1.67;;
71771;SDS011;59606;52.138;5.424;2022-10-22T10:13:27;6.35;;;1.35;;
71771;SDS011;59606;52.138;5.424;2022-10-22T10:15:49;10.70;;;1.70;;
71771;SDS011;59606;52.138;5.424;2022-10-22T10:18:45;8.17;;;1.67;;
71771;SDS011;59606;52.138;5.424;2022-10-22T10:21:32;9.27;;;1.38;;
71771;SDS011;59606;52.138;5.424;2022-10-22T10:34:55;9.13;;;1.88;;
71771;SDS011;59606;52.138;5.424;2022-10-22T10:37:38;9.73;;;1.38;;
71771;SDS011;59606;52.138;5.424;2022-10-22T10:43:10;5.47;;;1.85;;
71771;SDS011;59606;52.138;5.424;2022-10-22T10:48:54;8.73;;;1.60;;
71771;SDS011;59606;52.138;5.424;2022-10-22T10:51:37;8.93;;;1.73;;
71771;SDS011;59606;52.138;5.424;2022-10-22T10:54:12;5.13;;;1.02;;
71771;SDS011;59606;52.138;5.424;2022-10-22T10:56:49;8.77;;;1.42;;
71771;SDS011;59606;52.138;5.424;2022-10-22T11:07:59;6.93;;;1.20;;
71771;SDS011;59606;52.138;5.424;2022-10-22T11:13:01;9.30;;;1.90;;
71771;SDS011;59606;52.138;5.424;2022-10-22T11:15:34;7.07;;;1.38;;
71771;SDS011;59606;52.138;5.424;2022-10-22T11:20:40;8.50;;;2.45;;
71771;SDS011;59606;52.138;5.424;2022-10-22T11:23:21;11.35;;;2.33;;
71771;SDS011;59606;52.138;5.424;2022-10-22T11:25:52;8.53;;;1.60;;
71771;SDS011;59606;52.138;5.424;2022-10-22T11:28:30;6.70;;;1.30;;
71771;SDS011;59606;52.138;5.424;2022-10-22T11:31:01;7.18;;;1.33;;
71771;SDS011;59606;52.138;5.424;2022-10-22T11:36:30;8.20;;;1.23;;
71771;SDS011;59606;52.138;5.424;2022-10-22T11:38:58;12.07;;;2.30;;
71771;SDS011;59606;52.138;5.424;2022-10-22T11:41:27;8.00;;;2.10;;
71771;SDS011;59606;52.138;5.424;2022-10-22T11:46:44;7.30;;;1.55;;
71771;SDS011;59606;52.138;5.424;2022-10-22T11:49:21;6.75;;;1.73;;
71771;SDS011;59606;52.138;5.424;2022-10-22T11:52:21;8.80;;;1.70;;
71771;SDS011;59606;52.138;5.424;2022-10-22T11:54:54;13.70;;;1.50;;
71771;SDS011;59606;52.138;5.424;2022-10-22T11:57:27;8.18;;;1.70;;
71771;SDS011;59606;52.138;5.424;2022-10-22T12:03:22;8.80;;;1.85;;
71771;SDS011;59606;52.138;5.424;2022-10-22T12:08:41;13.30;;;2.08;;
71771;SDS011;59606;52.138;5.424;2022-10-22T12:16:28;11.00;;;2.95;;
71771;SDS011;59606;52.138;5.424;2022-10-22T12:21:58;11.27;;;3.67;;
71771;SDS011;59606;52.138;5.424;2022-10-22T12:24:37;10.32;;;2.00;;
71771;SDS011;59606;52.138;5.424;2022-10-22T12:27:16;8.35;;;1.45;;
71771;SDS011;59606;52.138;5.424;2022-10-22T12:29:48;14.63;;;1.77;;
71771;SDS011;59606;52.138;5.424;2022-10-22T12:32:20;18.23;;;2.60;;
71771;SDS011;59606;52.138;5.424;2022-10-22T12:34:47;6.35;;;1.75;;
71771;SDS011;59606;52.138;5.424;2022-10-22T12:37:20;11.50;;;2.92;;
71771;SDS011;59606;52.138;5.424;2022-10-22T12:39:47;8.68;;;1.60;;
71771;SDS011;59606;52.138;5.424;2022-10-22T12:42:14;11.50;;;2.00;;
71771;SDS011;59606;52.138;5.424;2022-10-22T12:44:43;8.83;;;1.47;;
71771;SDS011;59606;52.138;5.424;2022-10-22T12:47:13;6.78;;;1.48;;
71771;SDS011;59606;52.138;5.424;2022-10-22T12:49:43;10.70;;;2.05;;
71771;SDS011;59606;52.138;5.424;2022-10-22T12:52:13;8.82;;;1.63;;
71771;SDS011;59606;52.138;5.424;2022-10-22T12:54:44;8.90;;;1.08;;
71771;SDS011;59606;52.138;5.424;2022-10-22T12:57:16;6.93;;;1.40;;
71771;SDS011;59606;52.138;5.424;2022-10-22T12:59:45;7.45;;;1.33;;
71771;SDS011;59606;52.138;5.424;2022-10-22T13:02:19;8.98;;;1.33;;
71771;SDS011;59606;52.138;5.424;2022-10-22T13:08:03;12.77;;;1.65;;
71771;SDS011;59606;52.138;5.424;2022-10-22T13:10:38;12.37;;;2.23;;
71771;SDS011;59606;52.138;5.424;2022-10-22T13:13:06;10.15;;;1.70;;
71771;SDS011;59606;52.138;5.424;2022-10-22T13:15:34;10.30;;;2.35;;
71771;SDS011;59606;52.138;5.424;2022-10-22T13:18:04;7.82;;;1.88;;
71771;SDS011;59606;52.138;5.424;2022-10-22T13:20:49;9.18;;;1.35;;
71771;SDS011;59606;52.138;5.424;2022-10-22T13:23:31;12.33;;;1.83;;
71771;SDS011;59606;52.138;5.424;2022-10-22T13:26:03;5.53;;;1.05;;
71771;SDS011;59606;52.138;5.424;2022-10-22T13:28:39;8.88;;;1.67;;
71771;SDS011;59606;52.138;5.424;2022-10-22T13:31:19;11.13;;;2.22;;
71771;SDS011;59606;52.138;5.424;2022-10-22T13:33:59;14.40;;;3.20;;
71771;SDS011;59606;52.138;5.424;2022-10-22T13:36:35;13.63;;;2.03;;
71771;SDS011;59606;52.138;5.424;2022-10-22T13:39:02;10.57;;;2.35;;
71771;SDS011;59606;52.138;5.424;2022-10-22T13:41:36;11.63;;;2.50;;
71771;SDS011;59606;52.138;5.424;2022-10-22T13:44:08;8.02;;;2.00;;
71771;SDS011;59606;52.138;5.424;2022-10-22T13:46:35;9.52;;;1.90;;
71771;SDS011;59606;52.138;5.424;2022-10-22T13:49:15;10.37;;;1.90;;
71771;SDS011;59606;52.138;5.424;2022-10-22T13:51:44;8.88;;;1.73;;
71771;SDS011;59606;52.138;5.424;2022-10-22T13:54:13;9.60;;;2.20;;
71771;SDS011;59606;52.138;5.424;2022-10-22T13:56:44;7.60;;;1.83;;
71771;SDS011;59606;52.138;5.424;2022-10-22T13:59:11;11.70;;;2.90;;
71771;SDS011;59606;52.138;5.424;2022-10-22T14:01:38;11.97;;;1.60;;
71771;SDS011;59606;52.138;5.424;2022-10-22T14:04:05;7.88;;;1.55;;
71771;SDS011;59606;52.138;5.424;2022-10-22T14:06:35;12.35;;;2.53;;
71771;SDS011;59606;52.138;5.424;2022-10-22T14:09:03;10.00;;;2.05;;
71771;SDS011;59606;52.138;5.424;2022-10-22T14:11:31;9.63;;;1.80;;
71771;SDS011;59606;52.138;5.424;2022-10-22T14:13:58;9.90;;;1.53;;
71771;SDS011;59606;52.138;5.424;2022-10-22T14:16:25;9.52;;;1.73;;
71771;SDS011;59606;52.138;5.424;2022-10-22T14:18:53;12.30;;;2.25;;
71771;SDS011;59606;52.138;5.424;2022-10-22T14:21:21;10.05;;;2.20;;
71771;SDS011;59606;52.138;5.424;2022-10-22T14:23:47;13.20;;;1.98;;
71771;SDS011;59606;52.138;5.424;2022-10-22T14:26:21;10.67;;;2.27;;
71771;SDS011;59606;52.138;5.424;2022-10-22T14:28:49;18.77;;;2.78;;
71771;SDS011;59606;52.138;5.424;2022-10-22T14:31:39;10.18;;;2.00;;
71771;SDS011;59606;52.138;5.424;2022-10-22T14:34:09;13.73;;;3.60;;
71771;SDS011;59606;52.138;5.424;2022-10-22T14:36:37;10.52;;;1.98;;
71771;SDS011;59606;52.138;5.424;2022-10-22T14:39:04;12.00;;;2.20;;
71771;SDS011;59606;52.138;5.424;2022-10-22T14:41:30;12.82;;;4.18;;
71771;SDS011;59606;52.138;5.424;2022-10-22T14:43:57;12.63;;;4.05;;
71771;SDS011;59606;52.138;5.424;2022-10-22T14:46:25;13.85;;;3.55;;
71771;SDS011;59606;52.138;5.424;2022-10-22T14:48:51;14.95;;;4.35;;
71771;SDS011;59606;52.138;5.424;2022-10-22T14:51:18;16.30;;;2.33;;
71771;SDS011;59606;52.138;5.424;2022-10-22T14:53:46;10.45;;;2.85;;
71771;SDS011;59606;52.138;5.424;2022-10-22T14:56:14;10.20;;;2.42;;
71771;SDS011;59606;52.138;5.424;2022-10-22T14:58:42;11.35;;;2.08;;
71771;SDS011;59606;52.138;5.424;2022-10-22T15:01:10;8.98;;;2.67;;
71771;SDS011;59606;52.138;5.424;2022-10-22T15:03:37;19.13;;;3.17;;
71771;SDS011;59606;52.138;5.424;2022-10-22T15:06:03;10.35;;;2.30;;
71771;SDS011;59606;52.138;5.424;2022-10-22T15:08:30;9.52;;;2.22;;
71771;SDS011;59606;52.138;5.424;2022-10-22T15:11:01;12.43;;;2.15;;
71771;SDS011;59606;52.138;5.424;2022-10-22T15:13:36;10.00;;;2.17;;
71771;SDS011;59606;52.138;5.424;2022-10-22T15:16:06;9.07;;;2.27;;
71771;SDS011;59606;52.138;5.424;2022-10-22T15:18:34;10.30;;;1.73;;
71771;SDS011;59606;52.138;5.424;2022-10-22T15:21:02;8.77;;;2.50;;
71771;SDS011;59606;52.138;5.424;2022-10-22T15:23:34;18.60;;;2.38;;
71771;SDS011;59606;52.138;5.424;2022-10-22T15:26:01;13.93;;;2.10;;
71771;SDS011;59606;52.138;5.424;2022-10-22T15:28:28;10.60;;;2.23;;
71771;SDS011;59606;52.138;5.424;2022-10-22T15:30:55;7.95;;;1.58;;
71771;SDS011;59606;52.138;5.424;2022-10-22T15:33:24;9.32;;;1.70;;
71771;SDS011;59606;52.138;5.424;2022-10-22T15:35:52;9.40;;;1.75;;
71771;SDS011;59606;52.138;5.424;2022-10-22T15:38:18;13.75;;;1.85;;
71771;SDS011;59606;52.138;5.424;2022-10-22T15:40:45;10.23;;;1.90;;
71771;SDS011;59606;52.138;5.424;2022-10-22T15:43:12;9.13;;;1.90;;
71771;SDS011;59606;52.138;5.424;2022-10-22T15:45:39;11.73;;;2.30;;
71771;SDS011;59606;52.138;5.424;2022-10-22T15:48:06;11.68;;;1.92;;
71771;SDS011;59606;52.138;5.424;2022-10-22T15:50:36;8.60;;;1.95;;
71771;SDS011;59606;52.138;5.424;2022-10-22T15:53:04;10.20;;;2.40;;
71771;SDS011;59606;52.138;5.424;2022-10-22T15:55:31;8.38;;;2.17;;
71771;SDS011;59606;52.138;5.424;2022-10-22T15:57:57;9.82;;;2.00;;
71771;SDS011;59606;52.138;5.424;2022-10-22T16:00:29;8.57;;;2.58;;
71771;SDS011;59606;52.138;5.424;2022-10-22T16:02:55;12.48;;;2.58;;
71771;SDS011;59606;52.138;5.424;2022-10-22T16:05:22;10.70;;;2.20;;
71771;SDS011;59606;52.138;5.424;2022-10-22T16:07:48;9.93;;;2.47;;
71771;SDS011;59606;52.138;5.424;2022-10-22T16:10:16;10.70;;;2.53;;
71771;SDS011;59606;52.138;5.424;2022-10-22T16:12:43;7.65;;;2.20;;
71771;SDS011;59606;52.138;5.424;2022-10-22T16:15:09;12.35;;;3.17;;
71771;SDS011;59606;52.138;5.424;2022-10-22T16:17:36;11.70;;;2.67;;
71771;SDS011;59606;52.138;5.424;2022-10-22T16:20:02;16.83;;;2.92;;
71771;SDS011;59606;52.138;5.424;2022-10-22T16:22:30;16.10;;;3.25;;
71771;SDS011;59606;52.138;5.424;2022-10-22T16:24:56;13.50;;;2.90;;
71771;SDS011;59606;52.138;5.424;2022-10-22T16:27:23;13.93;;;2.45;;
71771;SDS011;59606;52.138;5.424;2022-10-22T16:29:49;12.07;;;2.77;;
71771;SDS011;59606;52.138;5.424;2022-10-22T16:32:15;12.60;;;2.80;;
71771;SDS011;59606;52.138;5.424;2022-10-22T16:34:43;7.85;;;2.22;;
71771;SDS011;59606;52.138;5.424;2022-10-22T16:37:09;11.98;;;2.65;;
71771;SDS011;59606;52.138;5.424;2022-10-22T16:39:36;7.20;;;2.10;;
71771;SDS011;59606;52.138;5.424;2022-10-22T16:42:03;8.97;;;2.23;;
71771;SDS011;59606;52.138;5.424;2022-10-22T16:44:30;9.38;;;2.22;;
71771;SDS011;59606;52.138;5.424;2022-10-22T16:46:56;9.25;;;3.25;;
71771;SDS011;59606;52.138;5.424;2022-10-22T16:49:23;11.07;;;2.45;;
71771;SDS011;59606;52.138;5.424;2022-10-22T16:51:49;6.82;;;2.63;;